Kocelovice, Czech Republic
Current Conditions -  °F | °C
As of 11:00 PM on Wednesday 17 Dec 2014 (Local Time) from LKLN Reporting Station
Overcast Overcast  
Wind Chill: 36°   Ceiling: 1600
Heat Index: 41°   Visibility: 6mi
Dew Point: 37°   Wind: 8mph
Humidity: 87%   Direction: 250°WSW
Pressure: 29.8"   Gusts: NA
Location:  49.47°N, 13.83°E
Report Text: LKLN 172100Z AUTO 25007KT 220V290 9999 OVC016 05/03 Q1009
Loading
Personal Weather Stations






























Interactive Weather Map New forecast layout! Learn more

10-Day Weather Forecast

Advertisements
Track Severe Weather on mobile